Time;durP1;ratioP1;P1;durP2;ratioP2;P2;SDS_P1;SDS_P2;PMS_P1;PMS_P2;Temp;Humidity;BMP_temperature;BMP_pressure;BME280_temperature;BME280_humidity;BME280_pressure;Samples;Min_cycle;Max_cycle;Signal;HPM_P1;HPM_P2
2022/05/20 00:01:29;;;;;;;;;0.00;0.00;;;;;;;;5125327;27;61843;-75
2022/05/20 00:03:55;;;;;;;;;0.00;0.00;;;;;;;;5125681;27;61765;-75
2022/05/20 00:06:20;;;;;;;;;2.50;0.00;;;;;;;;5124862;27;61635;-74
2022/05/20 00:08:45;;;;;;;;;1.00;0.00;;;;;;;;5124791;27;61890;-75
2022/05/20 00:11:11;;;;;;;;;0.50;0.50;;;;;;;;5123849;27;62034;-74
2022/05/20 00:13:36;;;;;;;;;0.00;0.00;;;;;;;;5125586;27;62109;-74
2022/05/20 00:16:01;;;;;;;;;0.75;0.00;;;;;;;;5125194;27;61855;-74
2022/05/20 00:18:27;;;;;;;;;0.00;0.00;;;;;;;;5123563;27;63618;-75
2022/05/20 00:20:53;;;;;;;;;0.00;0.00;;;;;;;;5124949;27;61717;-74
2022/05/20 00:23:19;;;;;;;;;0.00;0.00;;;;;;;;5125565;27;61828;-74
2022/05/20 00:25:47;;;;;;;;;1.50;0.00;;;;;;;;5125486;27;61759;-74
2022/05/20 00:28:20;;;;;;;;;0.00;0.00;;;;;;;;5123446;27;63894;-74
2022/05/20 00:30:47;;;;;;;;;0.00;0.00;;;;;;;;5123454;27;61875;-74
2022/05/20 00:33:13;;;;;;;;;0.00;0.00;;;;;;;;5125182;27;61754;-74
2022/05/20 00:35:38;;;;;;;;;0.00;0.00;;;;;;;;5123455;27;62077;-74
2022/05/20 00:38:04;;;;;;;;;1.00;0.00;;;;;;;;5124000;27;61824;-75
2022/05/20 00:40:29;;;;;;;;;1.50;0.00;;;;;;;;5124918;27;62252;-75
2022/05/20 00:43:08;;;;;;;;;0.00;0.00;;;;;;;;5125139;27;61783;-74
2022/05/20 00:45:34;;;;;;;;;0.00;0.00;;;;;;;;5123358;27;61914;-75
2022/05/20 00:47:59;;;;;;;;;0.00;0.00;;;;;;;;5124204;27;61911;-74
2022/05/20 00:50:25;;;;;;;;;0.00;0.00;;;;;;;;5124588;27;61687;-74
2022/05/20 00:52:50;;;;;;;;;4.00;0.00;;;;;;;;5125158;27;61758;-74
2022/05/20 00:55:18;;;;;;;;;0.00;0.00;;;;;;;;5123446;27;62107;-74
2022/05/20 00:57:47;;;;;;;;;0.00;0.00;;;;;;;;5124169;27;62669;-74
2022/05/20 01:00:15;;;;;;;;;0.00;0.00;;;;;;;;5124480;27;61910;-74
2022/05/20 01:02:41;;;;;;;;;0.00;0.00;;;;;;;;5124541;27;61736;-74
2022/05/20 01:05:15;;;;;;;;;0.00;0.00;;;;;;;;5124402;27;61754;-74
2022/05/20 01:07:41;;;;;;;;;0.50;0.00;;;;;;;;5123936;27;61919;-74
2022/05/20 01:10:07;;;;;;;;;0.00;0.00;;;;;;;;5124057;27;61958;-74
2022/05/20 01:12:32;;;;;;;;;0.00;0.00;;;;;;;;5124610;27;62209;-75
2022/05/20 01:14:57;;;;;;;;;0.25;0.00;;;;;;;;5123167;27;62204;-74
2022/05/20 01:17:23;;;;;;;;;1.00;0.00;;;;;;;;5123655;27;62056;-75
2022/05/20 01:19:55;;;;;;;;;0.00;0.00;;;;;;;;5124111;27;61847;-75
2022/05/20 01:22:39;;;;;;;;;0.00;0.00;;;;;;;;5124235;27;61945;-75
2022/05/20 01:25:05;;;;;;;;;0.00;0.00;;;;;;;;5124209;27;61890;-74
2022/05/20 01:27:30;;;;;;;;;1.00;1.00;;;;;;;;5123840;27;62793;-74
2022/05/20 01:29:56;;;;;;;;;1.00;0.00;;;;;;;;5124183;27;61950;-74
2022/05/20 01:32:21;;;;;;;;;0.00;0.00;;;;;;;;5124096;27;62816;-73
2022/05/20 01:34:46;;;;;;;;;0.00;0.00;;;;;;;;5122849;27;61833;-74
2022/05/20 01:37:12;;;;;;;;;0.00;0.00;;;;;;;;5121588;27;63769;-74
2022/05/20 01:39:37;;;;;;;;;1.00;0.00;;;;;;;;5124122;27;62142;-74
2022/05/20 01:42:16;;;;;;;;;0.00;0.00;;;;;;;;5124132;27;61814;-74
2022/05/20 01:44:45;;;;;;;;;0.00;0.00;;;;;;;;5124270;27;61842;-74
2022/05/20 01:47:14;;;;;;;;;0.00;0.00;;;;;;;;5122554;27;63458;-75
2022/05/20 01:49:39;;;;;;;;;0.00;0.00;;;;;;;;5124089;27;61849;-74
2022/05/20 01:52:08;;;;;;;;;0.50;0.00;;;;;;;;5122507;27;61843;-74
2022/05/20 01:54:52;;;;;;;;;0.00;0.00;;;;;;;;5124208;27;61867;-74
2022/05/20 01:57:17;;;;;;;;;0.00;0.00;;;;;;;;5123034;27;61731;-73
2022/05/20 01:59:46;;;;;;;;;4.00;0.00;;;;;;;;5123719;27;62113;-74
2022/05/20 02:02:15;;;;;;;;;0.00;0.00;;;;;;;;5123447;27;61925;-74
2022/05/20 02:04:43;;;;;;;;;0.00;0.00;;;;;;;;5122525;27;61651;-73
2022/05/20 02:07:11;;;;;;;;;0.00;0.00;;;;;;;;5121418;27;62698;-74
2022/05/20 02:09:46;;;;;;;;;3.00;0.00;;;;;;;;5123885;27;61720;-74
2022/05/20 02:12:14;;;;;;;;;1.50;0.00;;;;;;;;5123987;27;61759;-74
2022/05/20 02:15:00;;;;;;;;;1.00;0.00;;;;;;;;5123688;27;61704;-74
2022/05/20 02:17:40;;;;;;;;;0.00;0.00;;;;;;;;5121166;27;65427;-74
2022/05/20 02:20:05;;;;;;;;;0.00;0.00;;;;;;;;5123350;27;61928;-74
2022/05/20 02:22:33;;;;;;;;;0.00;0.00;;;;;;;;5123446;27;61991;-74
2022/05/20 02:24:59;;;;;;;;;0.00;0.00;;;;;;;;5123738;27;61752;-74
2022/05/20 02:27:29;;;;;;;;;3.50;0.00;;;;;;;;5122822;27;61880;-74
2022/05/20 02:30:06;;;;;;;;;0.25;0.00;;;;;;;;5127767;27;61845;-74
2022/05/20 02:32:45;;;;;;;;;0.00;0.00;;;;;;;;5129748;27;61851;-74
2022/05/20 02:35:10;;;;;;;;;0.00;0.00;;;;;;;;5128991;27;61997;-74
2022/05/20 02:37:37;;;;;;;;;0.00;0.00;;;;;;;;5128094;27;63814;-74
2022/05/20 02:40:04;;;;;;;;;0.00;0.00;;;;;;;;5130137;27;61743;-74
2022/05/20 02:42:29;;;;;;;;;1.00;0.00;;;;;;;;5130192;27;61750;-74
2022/05/20 02:44:55;;;;;;;;;0.00;0.00;;;;;;;;5130376;27;62362;-74
2022/05/20 02:47:21;;;;;;;;;0.00;0.00;;;;;;;;5129048;27;62072;-74
2022/05/20 02:49:46;;;;;;;;;1.00;0.00;;;;;;;;5130194;27;62024;-74
2022/05/20 02:52:11;;;;;;;;;1.00;0.00;;;;;;;;5130134;27;61997;-74
2022/05/20 02:54:36;;;;;;;;;0.00;0.00;;;;;;;;5129968;27;62023;-74
2022/05/20 02:57:03;;;;;;;;;0.00;0.00;;;;;;;;5128036;27;64535;-74
2022/05/20 03:04:57;;;;;;;;;1.00;0.00;;;;;;;;5130033;27;61805;-74
2022/05/20 03:07:22;;;;;;;;;0.00;0.00;;;;;;;;5128589;27;62213;-74
2022/05/20 03:09:48;;;;;;;;;0.00;0.00;;;;;;;;5128133;27;61994;-74
2022/05/20 03:12:14;;;;;;;;;1.25;0.00;;;;;;;;5129773;27;62029;-74
2022/05/20 03:14:40;;;;;;;;;0.00;0.00;;;;;;;;5128198;27;61805;-74
2022/05/20 03:17:06;;;;;;;;;0.00;0.00;;;;;;;;5128761;27;62042;-73
2022/05/20 03:19:32;;;;;;;;;0.00;0.00;;;;;;;;5128285;27;61771;-74
2022/05/20 03:21:58;;;;;;;;;2.00;0.75;;;;;;;;5129559;27;62701;-74
2022/05/20 03:24:23;;;;;;;;;0.50;0.50;;;;;;;;5129704;27;61801;-74
2022/05/20 03:26:49;;;;;;;;;1.00;1.00;;;;;;;;5129010;27;61715;-74
2022/05/20 03:29:15;;;;;;;;;1.00;1.00;;;;;;;;5127995;27;61941;-74
2022/05/20 03:31:40;;;;;;;;;2.50;1.00;;;;;;;;5129019;27;61923;-74
2022/05/20 03:34:06;;;;;;;;;1.75;1.00;;;;;;;;5129732;27;62074;-74
2022/05/20 03:36:33;;;;;;;;;1.00;1.00;;;;;;;;5127246;27;63433;-74
2022/05/20 03:38:58;;;;;;;;;2.00;2.00;;;;;;;;5129132;27;62266;-74
2022/05/20 03:41:24;;;;;;;;;4.00;1.00;;;;;;;;5126025;27;61781;-74
2022/05/20 03:43:49;;;;;;;;;0.75;0.75;;;;;;;;5125825;27;61887;-74
2022/05/20 03:46:14;;;;;;;;;1.00;1.00;;;;;;;;5125160;27;61848;-74
2022/05/20 03:48:39;;;;;;;;;0.25;0.25;;;;;;;;5125747;27;61732;-74
2022/05/20 03:51:12;;;;;;;;;0.00;0.00;;;;;;;;5125931;27;61873;-74
2022/05/20 03:53:38;;;;;;;;;0.00;0.00;;;;;;;;5126042;27;62488;-74
2022/05/20 03:56:03;;;;;;;;;0.00;0.00;;;;;;;;5123806;27;64955;-74
2022/05/20 03:58:29;;;;;;;;;0.00;0.00;;;;;;;;5125567;27;61791;-74
2022/05/20 04:03:42;;;;;;;;;0.50;0.00;;;;;;;;5125870;27;62168;-74
2022/05/20 04:06:08;;;;;;;;;0.50;0.00;;;;;;;;5125215;27;61714;-74
2022/05/20 04:08:33;;;;;;;;;3.50;1.00;;;;;;;;5125109;27;61876;-74
2022/05/20 04:10:58;;;;;;;;;0.50;0.50;;;;;;;;5125412;27;61938;-74
2022/05/20 04:13:24;;;;;;;;;1.50;1.00;;;;;;;;5125756;27;61987;-74
2022/05/20 04:15:50;;;;;;;;;0.25;0.25;;;;;;;;5124112;27;61728;-74
2022/05/20 04:18:15;;;;;;;;;0.50;0.50;;;;;;;;5125645;27;62126;-74
2022/05/20 04:20:40;;;;;;;;;2.00;0.00;;;;;;;;5125342;27;61908;-74
2022/05/20 04:23:06;;;;;;;;;0.00;0.00;;;;;;;;5125826;27;61728;-74
2022/05/20 04:25:31;;;;;;;;;1.75;0.75;;;;;;;;5124729;27;61904;-74
2022/05/20 04:27:56;;;;;;;;;2.00;1.25;;;;;;;;5123763;27;61754;-74
2022/05/20 04:30:21;;;;;;;;;0.75;0.75;;;;;;;;5125247;27;62226;-74
2022/05/20 04:32:47;;;;;;;;;1.25;1.25;;;;;;;;5125219;27;61800;-73
2022/05/20 04:35:12;;;;;;;;;1.25;1.25;;;;;;;;5123145;27;63564;-74
2022/05/20 04:37:42;;;;;;;;;0.00;0.00;;;;;;;;5123747;27;62013;-74
2022/05/20 04:40:09;;;;;;;;;0.50;0.50;;;;;;;;5123739;27;61762;-74
2022/05/20 04:48:09;;;;;;;;;0.50;0.25;;;;;;;;5124753;27;62128;-74
2022/05/20 04:50:34;;;;;;;;;0.00;0.00;;;;;;;;5123341;27;61849;-74
2022/05/20 04:52:59;;;;;;;;;2.00;1.00;;;;;;;;5124304;27;61981;-74
2022/05/20 04:55:25;;;;;;;;;1.50;1.00;;;;;;;;5123848;27;62687;-75
2022/05/20 04:57:51;;;;;;;;;2.75;1.00;;;;;;;;5124429;27;61652;-76
2022/05/20 05:00:19;;;;;;;;;1.00;1.00;;;;;;;;5124762;27;61776;-75
2022/05/20 05:02:45;;;;;;;;;0.00;0.00;;;;;;;;5124158;27;61909;-75
2022/05/20 05:05:11;;;;;;;;;1.00;1.00;;;;;;;;5122205;27;63691;-76
2022/05/20 05:07:41;;;;;;;;;1.00;1.00;;;;;;;;5123532;27;61762;-76
2022/05/20 05:10:07;;;;;;;;;0.75;0.75;;;;;;;;5124109;27;61653;-76
2022/05/20 05:12:32;;;;;;;;;1.50;1.50;;;;;;;;5124033;27;61776;-77
2022/05/20 05:14:58;;;;;;;;;2.00;0.75;;;;;;;;5121030;27;64679;-77
2022/05/20 05:20:09;;;;;;;;;2.75;2.25;;;;;;;;5123391;27;61767;-76
2022/05/20 05:22:35;;;;;;;;;1.00;1.00;;;;;;;;5123980;27;61742;-75
2022/05/20 05:25:00;;;;;;;;;2.00;1.00;;;;;;;;5121388;27;62823;-76
2022/05/20 05:27:26;;;;;;;;;2.25;2.00;;;;;;;;5122694;27;61933;-77
2022/05/20 05:29:51;;;;;;;;;1.25;1.25;;;;;;;;5123790;27;62006;-81
2022/05/20 05:32:16;;;;;;;;;4.00;2.00;;;;;;;;5122543;27;61831;-81
2022/05/20 05:34:41;;;;;;;;;1.00;1.00;;;;;;;;5123507;27;61794;-78
2022/05/20 05:37:07;;;;;;;;;1.25;1.00;;;;;;;;5123568;27;62127;-77
2022/05/20 05:39:33;;;;;;;;;1.00;1.00;;;;;;;;5123737;27;61846;-78
2022/05/20 05:42:00;;;;;;;;;2.25;1.75;;;;;;;;5121578;27;61878;-78
2022/05/20 05:44:25;;;;;;;;;5.00;1.00;;;;;;;;5121212;27;63619;-81
2022/05/20 05:46:50;;;;;;;;;1.00;0.25;;;;;;;;5123118;27;61843;-77
2022/05/20 05:49:16;;;;;;;;;1.00;1.00;;;;;;;;5122155;27;62053;-77
2022/05/20 05:51:42;;;;;;;;;1.75;1.75;;;;;;;;5122118;27;62027;-74
2022/05/20 05:54:07;;;;;;;;;0.75;0.75;;;;;;;;5122082;27;62748;-75
2022/05/20 05:56:33;;;;;;;;;1.00;1.00;;;;;;;;5123239;27;61923;-75
2022/05/20 05:58:58;;;;;;;;;1.00;1.00;;;;;;;;5123196;27;61771;-74
2022/05/20 06:01:23;;;;;;;;;3.50;2.75;;;;;;;;5122597;27;61942;-75
2022/05/20 06:03:49;;;;;;;;;1.50;1.50;;;;;;;;5121507;27;62671;-75
2022/05/20 06:06:14;;;;;;;;;3.00;3.00;;;;;;;;5123086;27;61764;-75
2022/05/20 06:08:39;;;;;;;;;1.75;1.75;;;;;;;;5123123;27;61783;-75
2022/05/20 06:11:05;;;;;;;;;1.75;0.25;;;;;;;;5123247;27;62213;-75
2022/05/20 06:13:31;;;;;;;;;1.50;1.50;;;;;;;;5123049;27;61884;-75
2022/05/20 06:15:56;;;;;;;;;3.50;2.00;;;;;;;;5122658;27;61842;-77
2022/05/20 06:18:22;;;;;;;;;4.25;3.00;;;;;;;;5123500;27;61867;-75
2022/05/20 06:20:48;;;;;;;;;3.00;3.00;;;;;;;;5123531;27;62152;-75
2022/05/20 06:23:13;;;;;;;;;2.00;2.00;;;;;;;;5122019;27;62609;-74
2022/05/20 06:25:38;;;;;;;;;2.00;2.00;;;;;;;;5122750;27;61804;-76
2022/05/20 06:28:08;;;;;;;;;3.25;2.25;;;;;;;;5122408;27;62058;-79
2022/05/20 06:30:33;;;;;;;;;3.75;2.00;;;;;;;;5123345;27;61886;-77
2022/05/20 06:32:59;;;;;;;;;3.00;2.00;;;;;;;;5121222;27;61826;-77
2022/05/20 06:40:52;;;;;;;;;4.25;3.00;;;;;;;;5121530;27;61816;-77
2022/05/20 06:43:18;;;;;;;;;3.00;2.75;;;;;;;;5122122;27;61699;-76
2022/05/20 06:45:45;;;;;;;;;3.75;2.50;;;;;;;;5117465;27;61943;-75
2022/05/20 06:48:11;;;;;;;;;4.25;3.25;;;;;;;;5117847;27;62001;-75
2022/05/20 06:50:37;;;;;;;;;3.00;3.00;;;;;;;;5122450;27;62609;-74
2022/05/20 06:53:03;;;;;;;;;4.50;2.75;;;;;;;;5121964;27;61802;-75
2022/05/20 06:55:28;;;;;;;;;3.75;3.00;;;;;;;;5122297;27;61871;-74
2022/05/20 06:57:54;;;;;;;;;7.00;3.00;;;;;;;;5122354;27;61837;-75
2022/05/20 07:00:19;;;;;;;;;4.25;3.50;;;;;;;;5122949;27;61873;-75
2022/05/20 07:02:45;;;;;;;;;3.50;2.75;;;;;;;;5120573;27;63922;-74
2022/05/20 07:05:11;;;;;;;;;5.00;5.00;;;;;;;;5122008;27;61911;-74
2022/05/20 07:07:37;;;;;;;;;3.50;3.50;;;;;;;;5120786;27;61760;-73
2022/05/20 07:10:03;;;;;;;;;6.00;3.75;;;;;;;;5122267;27;62201;-74
2022/05/20 07:12:28;;;;;;;;;4.50;4.00;;;;;;;;5121782;27;61910;-74
2022/05/20 07:14:53;;;;;;;;;3.00;1.75;;;;;;;;5121496;27;61799;-74
2022/05/20 07:17:20;;;;;;;;;7.75;7.75;;;;;;;;5125151;27;61732;-74
2022/05/20 07:19:46;;;;;;;;;14.00;14.00;;;;;;;;5126266;27;61836;-74
2022/05/20 07:22:11;;;;;;;;;5.75;5.75;;;;;;;;5124661;27;61838;-74
2022/05/20 07:24:37;;;;;;;;;4.50;4.50;;;;;;;;5125808;27;61756;-74
2022/05/20 07:27:02;;;;;;;;;4.50;4.00;;;;;;;;5125575;27;61857;-74
2022/05/20 07:29:28;;;;;;;;;4.25;4.00;;;;;;;;5125269;27;61761;-74
2022/05/20 07:31:53;;;;;;;;;5.25;5.25;;;;;;;;5124516;27;61855;-74
2022/05/20 07:34:18;;;;;;;;;7.00;4.50;;;;;;;;5123825;27;61815;-74
2022/05/20 07:36:43;;;;;;;;;7.75;6.50;;;;;;;;5124082;27;62155;-73
2022/05/20 07:39:09;;;;;;;;;5.00;4.00;;;;;;;;5125650;27;61792;-74
2022/05/20 07:41:35;;;;;;;;;5.00;4.00;;;;;;;;5123475;27;64271;-74
2022/05/20 07:44:01;;;;;;;;;6.50;3.50;;;;;;;;5125794;27;61696;-73
2022/05/20 07:46:27;;;;;;;;;5.00;4.00;;;;;;;;5124606;27;61778;-74
2022/05/20 07:48:52;;;;;;;;;5.75;5.75;;;;;;;;5125906;27;62068;-74
2022/05/20 07:51:20;;;;;;;;;6.00;6.00;;;;;;;;5122441;27;64834;-74
2022/05/20 07:53:51;;;;;;;;;9.25;5.00;;;;;;;;5125687;27;61882;-73
2022/05/20 07:56:22;;;;;;;;;5.25;5.25;;;;;;;;5125098;27;61815;-74
2022/05/20 07:58:50;;;;;;;;;7.00;6.25;;;;;;;;5124207;27;62069;-74
2022/05/20 08:01:17;;;;;;;;;5.75;5.50;;;;;;;;5122767;27;62599;-74
2022/05/20 08:06:26;;;;;;;;;6.75;6.75;;;;;;;;5122322;27;61872;-82
2022/05/20 08:08:53;;;;;;;;;7.00;6.00;;;;;;;;5123642;27;62019;-82
2022/05/20 08:11:18;;;;;;;;;7.00;5.25;;;;;;;;5122363;27;64619;-81
2022/05/20 08:13:43;;;;;;;;;5.50;5.00;;;;;;;;5124590;27;61921;-81
2022/05/20 08:16:09;;;;;;;;;5.50;5.00;;;;;;;;5124361;27;62036;-82
2022/05/20 08:18:34;;;;;;;;;9.25;8.00;;;;;;;;5123183;27;61805;-82
2022/05/20 08:20:59;;;;;;;;;7.75;4.75;;;;;;;;5123361;27;61736;-82
2022/05/20 08:23:25;;;;;;;;;5.00;5.00;;;;;;;;5122785;27;62278;-74
2022/05/20 08:25:51;;;;;;;;;7.50;7.50;;;;;;;;5124931;27;61823;-74
2022/05/20 08:28:17;;;;;;;;;10.00;8.25;;;;;;;;5124332;27;61787;-74
2022/05/20 08:30:42;;;;;;;;;7.50;7.00;;;;;;;;5123873;27;61823;-74
2022/05/20 08:33:07;;;;;;;;;8.75;8.00;;;;;;;;5124627;27;62096;-74
2022/05/20 08:35:33;;;;;;;;;9.00;8.25;;;;;;;;5124430;27;61862;-74
2022/05/20 08:37:58;;;;;;;;;5.25;5.25;;;;;;;;5122766;27;62417;-74
2022/05/20 08:40:25;;;;;;;;;11.75;7.00;;;;;;;;5123853;27;61877;-74
2022/05/20 08:42:52;;;;;;;;;7.25;7.25;;;;;;;;5124943;27;62148;-74
2022/05/20 08:45:19;;;;;;;;;8.75;8.75;;;;;;;;5124807;27;61586;-74
2022/05/20 08:47:46;;;;;;;;;12.50;9.75;;;;;;;;5122738;27;61989;-74
2022/05/20 08:50:18;;;;;;;;;13.25;8.50;;;;;;;;5124083;27;61832;-74
2022/05/20 08:52:44;;;;;;;;;12.75;11.50;;;;;;;;5122834;27;61885;-75
2022/05/20 08:55:10;;;;;;;;;13.00;11.00;;;;;;;;5123044;27;61830;-76
2022/05/20 08:57:36;;;;;;;;;14.00;12.00;;;;;;;;5124613;27;61879;-75
2022/05/20 09:00:03;;;;;;;;;16.75;15.25;;;;;;;;5123268;27;61926;-75
2022/05/20 09:02:28;;;;;;;;;17.00;13.25;;;;;;;;5122991;27;61786;-75
2022/05/20 09:04:53;;;;;;;;;15.50;11.25;;;;;;;;5124533;27;61926;-75
2022/05/20 09:07:20;;;;;;;;;11.00;9.50;;;;;;;;5124243;27;61810;-75
2022/05/20 09:09:51;;;;;;;;;11.25;10.25;;;;;;;;5123053;27;62655;-75
2022/05/20 09:12:28;;;;;;;;;10.75;8.50;;;;;;;;5124028;27;61761;-75
2022/05/20 09:17:47;;;;;;;;;13.00;11.75;;;;;;;;5123464;27;61799;-75
2022/05/20 09:20:16;;;;;;;;;10.50;10.00;;;;;;;;5123232;27;61829;-75
2022/05/20 09:22:52;;;;;;;;;11.75;10.75;;;;;;;;5122432;27;61731;-75
2022/05/20 09:25:23;;;;;;;;;11.50;10.50;;;;;;;;5123932;27;61694;-75
2022/05/20 09:27:51;;;;;;;;;11.00;8.50;;;;;;;;5123462;27;61778;-76
2022/05/20 09:30:20;;;;;;;;;11.50;8.50;;;;;;;;5123478;27;62557;-75
2022/05/20 09:33:01;;;;;;;;;10.50;8.50;;;;;;;;5122812;27;61891;-76
2022/05/20 09:35:31;;;;;;;;;11.00;10.00;;;;;;;;5122523;27;61751;-75
2022/05/20 09:37:56;;;;;;;;;9.50;8.50;;;;;;;;5123133;27;61975;-75
2022/05/20 09:40:22;;;;;;;;;15.50;13.25;;;;;;;;5121871;27;62022;-75
2022/05/20 09:42:58;;;;;;;;;15.25;11.00;;;;;;;;5123563;27;61965;-75
2022/05/20 09:45:24;;;;;;;;;12.75;9.75;;;;;;;;5122513;27;61836;-75
2022/05/20 09:48:00;;;;;;;;;12.00;9.75;;;;;;;;5122530;27;62036;-76
2022/05/20 09:50:33;;;;;;;;;12.25;10.25;;;;;;;;5122326;27;62658;-75
2022/05/20 09:53:14;;;;;;;;;10.50;10.25;;;;;;;;5121861;27;61777;-75
2022/05/20 09:55:44;;;;;;;;;13.50;12.50;;;;;;;;5121844;27;61900;-76
2022/05/20 09:58:15;;;;;;;;;16.75;13.50;;;;;;;;5124006;27;61817;-75
2022/05/20 10:00:47;;;;;;;;;15.50;10.50;;;;;;;;5122611;27;61845;-75
2022/05/20 10:03:24;;;;;;;;;13.00;10.00;;;;;;;;5122191;27;61791;-75
2022/05/20 10:06:08;;;;;;;;;17.25;15.00;;;;;;;;5121149;27;61794;-76
2022/05/20 10:08:38;;;;;;;;;12.75;11.00;;;;;;;;5122386;27;61861;-75
2022/05/20 10:11:13;;;;;;;;;11.25;10.25;;;;;;;;5122190;27;61778;-76
2022/05/20 10:13:53;;;;;;;;;15.75;12.25;;;;;;;;5121820;27;61767;-75
2022/05/20 10:16:28;;;;;;;;;14.50;11.75;;;;;;;;5122581;27;61859;-75
2022/05/20 10:19:02;;;;;;;;;11.50;11.50;;;;;;;;5121773;27;61893;-76
2022/05/20 10:21:44;;;;;;;;;18.75;13.25;;;;;;;;5122491;27;62861;-77
2022/05/20 10:24:17;;;;;;;;;12.25;12.00;;;;;;;;5122836;27;61731;-78
2022/05/20 10:27:01;;;;;;;;;14.00;12.00;;;;;;;;5122989;27;61816;-76
2022/05/20 10:32:34;;;;;;;;;15.50;11.25;;;;;;;;5115791;27;61700;-73
2022/05/20 10:35:01;;;;;;;;;16.00;13.75;;;;;;;;5120469;27;62120;-73
2022/05/20 10:37:40;;;;;;;;;22.00;16.75;;;;;;;;5122263;27;61926;-73
2022/05/20 10:40:09;;;;;;;;;19.75;13.25;;;;;;;;5122083;27;61815;-74
2022/05/20 10:42:37;;;;;;;;;21.25;16.75;;;;;;;;5120230;27;63553;-72
2022/05/20 10:50:58;;;;;;;;;18.75;15.50;;;;;;;;5123270;27;61732;-76
2022/05/20 10:53:39;;;;;;;;;19.00;15.75;;;;;;;;5124904;27;62871;-77
2022/05/20 10:56:10;;;;;;;;;18.25;16.25;;;;;;;;5125820;27;61758;-79
2022/05/20 10:58:41;;;;;;;;;19.25;15.25;;;;;;;;5125751;27;61887;-79
2022/05/20 11:01:15;;;;;;;;;18.75;14.00;;;;;;;;5124103;27;62048;-84
2022/05/20 11:03:51;;;;;;;;;13.00;12.75;;;;;;;;5124634;27;61973;-85
2022/05/20 11:06:35;;;;;;;;;18.50;13.75;;;;;;;;5123987;27;61891;-83
2022/05/20 11:09:04;;;;;;;;;15.50;10.75;;;;;;;;5124465;27;62056;-80
2022/05/20 11:11:41;;;;;;;;;16.00;11.50;;;;;;;;5123378;27;61920;-77
2022/05/20 11:14:09;;;;;;;;;13.00;10.00;;;;;;;;5122268;27;63689;-76
2022/05/20 11:16:35;;;;;;;;;18.50;13.25;;;;;;;;5124022;27;61886;-76
2022/05/20 11:19:12;;;;;;;;;12.25;10.25;;;;;;;;5124367;27;62002;-76
2022/05/20 11:21:47;;;;;;;;;13.50;10.50;;;;;;;;5125135;27;61946;-75
2022/05/20 11:24:27;;;;;;;;;15.00;11.00;;;;;;;;5123314;27;61865;-77
2022/05/20 11:27:11;;;;;;;;;12.00;9.00;;;;;;;;5124146;27;62122;-77
2022/05/20 11:29:56;;;;;;;;;12.75;10.00;;;;;;;;5125199;27;61870;-75
2022/05/20 11:32:31;;;;;;;;;9.25;9.00;;;;;;;;5120627;27;61821;-78
2022/05/20 11:35:02;;;;;;;;;16.50;10.50;;;;;;;;5123871;27;62536;-78
2022/05/20 11:37:28;;;;;;;;;10.25;9.25;;;;;;;;5123700;27;61989;-77
2022/05/20 11:39:56;;;;;;;;;10.25;9.00;;;;;;;;5124691;27;61799;-77
2022/05/20 11:42:39;;;;;;;;;10.50;9.25;;;;;;;;5123648;27;61881;-77
2022/05/20 11:45:11;;;;;;;;;11.00;7.75;;;;;;;;5123134;27;64045;-77
2022/05/20 11:47:39;;;;;;;;;11.75;11.25;;;;;;;;5124801;27;61929;-77
2022/05/20 11:50:13;;;;;;;;;9.75;9.00;;;;;;;;5125551;27;61898;-77
2022/05/20 11:52:57;;;;;;;;;10.00;10.00;;;;;;;;5125339;27;61830;-77
2022/05/20 11:55:28;;;;;;;;;8.50;7.25;;;;;;;;5124611;27;62693;-77
2022/05/20 11:58:00;;;;;;;;;7.00;7.00;;;;;;;;5123617;27;61861;-77
2022/05/20 12:00:26;;;;;;;;;9.25;8.25;;;;;;;;5123406;27;61795;-77
2022/05/20 12:02:58;;;;;;;;;8.00;8.00;;;;;;;;5124014;27;61712;-77
2022/05/20 12:05:25;;;;;;;;;6.75;6.75;;;;;;;;5122828;27;63828;-77
2022/05/20 12:07:51;;;;;;;;;8.75;8.50;;;;;;;;5124550;27;61962;-77
2022/05/20 12:10:18;;;;;;;;;6.75;6.50;;;;;;;;5122977;27;61841;-77
2022/05/20 12:13:06;;;;;;;;;7.25;7.25;;;;;;;;5124770;27;61934;-77
2022/05/20 12:15:38;;;;;;;;;7.50;7.00;;;;;;;;5122384;27;65077;-77
2022/05/20 12:18:21;;;;;;;;;9.25;7.75;;;;;;;;5124604;27;61692;-77
2022/05/20 12:26:18;;;;;;;;;12.50;8.00;;;;;;;;5123718;27;62091;-77
2022/05/20 12:28:43;;;;;;;;;7.25;7.25;;;;;;;;5124723;27;61791;-77
2022/05/20 12:31:24;;;;;;;;;9.25;7.00;;;;;;;;5124061;27;61947;-77
2022/05/20 12:33:53;;;;;;;;;6.00;5.00;;;;;;;;5123345;27;61704;-77
2022/05/20 12:36:20;;;;;;;;;9.25;7.00;;;;;;;;5123355;27;61766;-77
2022/05/20 12:38:46;;;;;;;;;7.75;6.00;;;;;;;;5123843;27;61760;-77
2022/05/20 12:41:15;;;;;;;;;8.00;6.00;;;;;;;;5123867;27;62343;-77
2022/05/20 12:43:46;;;;;;;;;5.00;4.50;;;;;;;;5123804;27;61879;-77
2022/05/20 12:46:14;;;;;;;;;7.50;5.50;;;;;;;;5121654;27;64802;-77
2022/05/20 12:48:40;;;;;;;;;4.25;3.25;;;;;;;;5122837;27;61814;-77
2022/05/20 12:51:07;;;;;;;;;6.67;3.00;;;;;;;;5123963;27;61773;-77
2022/05/20 12:53:34;;;;;;;;;5.25;5.25;;;;;;;;5122857;27;61794;-77
2022/05/20 12:56:00;;;;;;;;;2.00;2.00;;;;;;;;5123508;27;62880;-78
2022/05/20 12:58:27;;;;;;;;;3.25;3.00;;;;;;;;5123961;27;61901;-77
2022/05/20 13:00:53;;;;;;;;;2.00;2.00;;;;;;;;5123044;27;61846;-77
2022/05/20 13:03:26;;;;;;;;;3.00;3.00;;;;;;;;5123892;27;61909;-77
2022/05/20 13:05:53;;;;;;;;;3.50;2.25;;;;;;;;5122054;27;62050;-78
2022/05/20 13:08:21;;;;;;;;;2.00;2.00;;;;;;;;5119232;27;61866;-78
2022/05/20 13:10:46;;;;;;;;;3.00;3.00;;;;;;;;5122514;27;61686;-80
2022/05/20 13:13:14;;;;;;;;;3.00;3.00;;;;;;;;5121629;27;61759;-78
2022/05/20 13:15:47;;;;;;;;;2.00;1.75;;;;;;;;5122822;27;61887;-79
2022/05/20 13:18:16;;;;;;;;;2.00;2.00;;;;;;;;5122050;27;61742;-78
2022/05/20 13:20:42;;;;;;;;;2.00;2.00;;;;;;;;5123687;27;61827;-79
2022/05/20 13:23:07;;;;;;;;;5.00;4.00;;;;;;;;5123346;27;62435;-78
2022/05/20 13:25:33;;;;;;;;;1.50;1.25;;;;;;;;5121246;27;64619;-78
2022/05/20 13:28:01;;;;;;;;;4.75;3.00;;;;;;;;5123627;27;61766;-79
2022/05/20 13:30:30;;;;;;;;;5.00;3.00;;;;;;;;5122945;27;61830;-78
2022/05/20 13:33:00;;;;;;;;;3.25;2.75;;;;;;;;5122994;27;61723;-78
2022/05/20 13:35:25;;;;;;;;;4.00;4.00;;;;;;;;5121117;27;63825;-79
2022/05/20 13:37:52;;;;;;;;;4.00;3.00;;;;;;;;5121050;27;62124;-79
2022/05/20 13:40:17;;;;;;;;;3.00;3.00;;;;;;;;5123269;27;61931;-78
2022/05/20 13:42:50;;;;;;;;;5.00;5.00;;;;;;;;5122857;27;61788;-78
2022/05/20 13:45:17;;;;;;;;;3.75;3.75;;;;;;;;5120949;27;63798;-78
2022/05/20 13:50:27;;;;;;;;;6.75;3.75;;;;;;;;5120806;27;61899;-79
2022/05/20 13:52:53;;;;;;;;;5.75;3.00;;;;;;;;5122622;27;62002;-78
2022/05/20 13:55:28;;;;;;;;;3.00;2.25;;;;;;;;5121157;27;63719;-78
2022/05/20 13:57:54;;;;;;;;;3.25;2.00;;;;;;;;5122764;27;61964;-78
2022/05/20 14:00:22;;;;;;;;;2.50;2.50;;;;;;;;5121291;27;61845;-78
2022/05/20 14:02:58;;;;;;;;;7.25;4.50;;;;;;;;5120431;27;61836;-79
2022/05/20 14:05:27;;;;;;;;;2.67;2.67;;;;;;;;5120968;27;63863;-79
2022/05/20 14:07:54;;;;;;;;;4.75;2.75;;;;;;;;5121816;27;62006;-79
2022/05/20 14:10:25;;;;;;;;;3.75;3.75;;;;;;;;5121659;27;61912;-79
2022/05/20 14:12:56;;;;;;;;;7.50;5.75;;;;;;;;5120769;27;62175;-79
2022/05/20 14:15:21;;;;;;;;;6.00;6.00;;;;;;;;5119213;27;62718;-78
2022/05/20 14:17:46;;;;;;;;;6.75;6.00;;;;;;;;5119803;27;61935;-79
2022/05/20 14:20:14;;;;;;;;;5.25;5.00;;;;;;;;5123034;27;61906;-79
2022/05/20 14:22:40;;;;;;;;;7.00;6.00;;;;;;;;5122560;27;61797;-79
2022/05/20 14:25:15;;;;;;;;;8.00;7.50;;;;;;;;5119433;27;63852;-79
2022/05/20 14:27:43;;;;;;;;;14.00;9.00;;;;;;;;5122513;27;61673;-75
2022/05/20 14:30:14;;;;;;;;;10.25;9.50;;;;;;;;5120943;27;61889;-75
2022/05/20 14:32:40;;;;;;;;;13.25;10.75;;;;;;;;5122118;27;61976;-81
2022/05/20 14:35:06;;;;;;;;;16.25;12.75;;;;;;;;5120916;27;61902;-79
2022/05/20 14:37:33;;;;;;;;;17.00;17.00;;;;;;;;5119666;27;62304;-79
2022/05/20 14:40:09;;;;;;;;;7.00;6.25;;;;;;;;5120187;27;61870;-79
2022/05/20 14:43:06;;;;;;;;;20.00;19.50;;;;;;;;5122439;27;61981;-79
2022/05/20 14:45:31;;;;;;;;;19.75;13.25;;;;;;;;5100174;27;63874;-79
2022/05/20 14:48:01;;;;;;;;;23.50;19.00;;;;;;;;5121646;27;61855;-79
2022/05/20 14:50:27;;;;;;;;;15.50;13.00;;;;;;;;5121772;27;61821;-79
2022/05/20 14:53:02;;;;;;;;;14.00;10.25;;;;;;;;5122342;27;61972;-79
2022/05/20 14:55:38;;;;;;;;;17.00;14.00;;;;;;;;5120160;27;63638;-78
2022/05/20 14:58:25;;;;;;;;;9.75;7.25;;;;;;;;5120691;27;62211;-79
2022/05/20 15:00:54;;;;;;;;;15.00;14.00;;;;;;;;5120830;27;62234;-79
2022/05/20 15:03:21;;;;;;;;;20.25;15.25;;;;;;;;5122203;27;61836;-79
2022/05/20 15:05:49;;;;;;;;;11.00;10.00;;;;;;;;5121088;27;61891;-78
2022/05/20 15:08:15;;;;;;;;;16.00;11.25;;;;;;;;5121282;27;61826;-78
2022/05/20 15:10:40;;;;;;;;;13.75;9.75;;;;;;;;5121561;27;61986;-78
2022/05/20 15:13:06;;;;;;;;;7.00;7.00;;;;;;;;5121898;27;62105;-78
2022/05/20 15:15:31;;;;;;;;;15.25;12.00;;;;;;;;5121334;27;61738;-79
2022/05/20 15:17:58;;;;;;;;;9.25;8.00;;;;;;;;5121337;27;61967;-79
2022/05/20 15:20:24;;;;;;;;;9.00;8.00;;;;;;;;5120662;27;62129;-78
2022/05/20 15:22:49;;;;;;;;;8.50;7.00;;;;;;;;5120621;27;62124;-78
2022/05/20 15:25:16;;;;;;;;;12.25;8.50;;;;;;;;5121057;27;61847;-78
2022/05/20 15:27:41;;;;;;;;;10.00;10.00;;;;;;;;5121624;27;61779;-78
2022/05/20 15:30:07;;;;;;;;;10.75;6.50;;;;;;;;5121480;27;61883;-79